createdAt,value
2022-10-23T00:01:16.607Z,87.90
2022-10-23T00:03:45.959Z,87.72
2022-10-23T00:06:14.959Z,87.95
2022-10-23T00:08:43.044Z,87.29
2022-10-23T00:11:12.971Z,87.84
2022-10-23T00:13:41.121Z,88.08
2022-10-23T00:16:11.307Z,88.65
2022-10-23T00:18:40.448Z,88.79
2022-10-23T00:21:10.469Z,88.28
2022-10-23T00:23:38.585Z,88.23
2022-10-23T00:26:08.086Z,88.54
2022-10-23T00:28:36.235Z,88.17
2022-10-23T00:31:04.324Z,88.54
2022-10-23T00:33:34.335Z,88.51
2022-10-23T00:36:02.318Z,88.26
2022-10-23T00:38:30.112Z,88.66
2022-10-23T00:40:58.009Z,88.39
2022-10-23T00:43:28.279Z,88.34
2022-10-23T00:45:56.673Z,87.83
2022-10-23T00:48:25.383Z,88.33
2022-10-23T00:50:54.896Z,88.39
2022-10-23T00:53:23.871Z,88.89
2022-10-23T00:55:55.929Z,88.58
2022-10-23T00:58:24.158Z,88.39
2022-10-23T01:00:54.344Z,88.63
2022-10-23T01:03:26.246Z,88.92
2022-10-23T01:06:02.098Z,88.40
2022-10-23T01:08:36.291Z,88.18
2022-10-23T01:11:11.534Z,87.95
2022-10-23T01:13:45.987Z,88.71
2022-10-23T01:16:19.782Z,89.03
2022-10-23T01:18:54.948Z,88.59
2022-10-23T01:21:31.329Z,89.15
2022-10-23T01:24:10.133Z,89.40
2022-10-23T01:27:02.131Z,89.00
2022-10-23T01:29:38.273Z,89.27
2022-10-23T01:32:10.773Z,89.72
2022-10-23T01:34:47.453Z,89.42
2022-10-23T01:37:21.133Z,88.91
2022-10-23T01:39:52.794Z,89.50
2022-10-23T01:42:25.940Z,89.82
2022-10-23T01:45:01.433Z,89.21
2022-10-23T01:47:34.016Z,89.96
2022-10-23T01:50:03.680Z,89.53
2022-10-23T01:52:32.048Z,89.32
2022-10-23T01:55:02.462Z,89.26
2022-10-23T01:57:33.789Z,89.41
2022-10-23T02:00:07.814Z,89.50
2022-10-23T02:02:38.756Z,89.53
2022-10-23T02:05:11.968Z,89.17
2022-10-23T02:07:40.103Z,89.20
2022-10-23T02:10:10.786Z,89.49
2022-10-23T02:12:46.493Z,89.30
2022-10-23T02:15:24.193Z,88.87
2022-10-23T02:18:03.877Z,89.22
2022-10-23T02:20:38.971Z,88.61
2022-10-23T02:23:16.366Z,88.75
2022-10-23T02:25:50.333Z,88.63
2022-10-23T02:28:24.785Z,88.56
2022-10-23T02:30:56.500Z,89.44
2022-10-23T02:33:27.430Z,89.43
2022-10-23T02:35:55.777Z,89.42
2022-10-23T02:38:36.460Z,89.07
2022-10-23T02:41:42.869Z,89.38
2022-10-23T02:44:26.999Z,88.67
2022-10-23T02:47:05.895Z,88.94
2022-10-23T02:49:40.560Z,89.17
2022-10-23T02:52:15.884Z,88.99
2022-10-23T02:55:07.461Z,89.46
2022-10-23T02:57:38.869Z,89.44
2022-10-23T03:00:11.036Z,88.80
2022-10-23T03:02:43.063Z,89.17
2022-10-23T03:05:17.565Z,89.12
2022-10-23T03:07:47.029Z,89.19
2022-10-23T03:10:15.958Z,88.61
2022-10-23T03:12:43.873Z,88.52
2022-10-23T03:15:13.543Z,89.03
2022-10-23T03:17:42.849Z,88.78
2022-10-23T03:20:11.823Z,89.66
2022-10-23T03:22:40.684Z,89.86
2022-10-23T03:25:09.740Z,89.48
2022-10-23T03:27:38.007Z,89.67
2022-10-23T03:30:07.444Z,89.65
2022-10-23T03:32:35.512Z,90.07
2022-10-23T03:35:05.333Z,89.94
2022-10-23T03:37:33.124Z,89.96
2022-10-23T03:40:00.957Z,89.34
2022-10-23T03:42:28.762Z,89.74
2022-10-23T03:44:56.809Z,89.88
2022-10-23T03:47:24.903Z,89.30
2022-10-23T03:49:52.689Z,89.88
2022-10-23T03:52:21.984Z,90.00
2022-10-23T03:54:50.190Z,89.84
2022-10-23T03:57:17.997Z,89.52
2022-10-23T03:59:46.064Z,90.00
2022-10-23T04:02:13.942Z,89.84
2022-10-23T04:04:42.236Z,89.88
2022-10-23T04:07:10.241Z,89.61
2022-10-23T04:09:39.552Z,89.50
2022-10-23T04:12:09.218Z,89.47
2022-10-23T04:14:37.346Z,89.08
2022-10-23T04:17:05.178Z,89.43
2022-10-23T04:19:33.040Z,89.71
2022-10-23T04:22:01.154Z,89.48
2022-10-23T04:24:29.098Z,89.93
2022-10-23T04:26:58.397Z,90.16
2022-10-23T04:29:28.548Z,89.65
2022-10-23T04:31:56.375Z,89.69
2022-10-23T04:34:24.300Z,89.33
2022-10-23T04:36:52.321Z,90.04
2022-10-23T04:39:20.354Z,89.93
2022-10-23T04:41:48.504Z,89.57
2022-10-23T04:44:18.144Z,89.77
2022-10-23T04:46:46.060Z,89.19
2022-10-23T04:49:13.866Z,89.16
2022-10-23T04:51:41.683Z,89.61
2022-10-23T04:54:09.755Z,90.14
2022-10-23T04:56:37.981Z,89.94
2022-10-23T05:01:39.971Z,89.46
2022-10-23T05:04:07.832Z,89.82
2022-10-23T05:06:35.689Z,89.30
2022-10-23T05:09:03.642Z,89.90
2022-10-23T05:11:31.749Z,89.55
2022-10-23T05:13:59.609Z,90.05
2022-10-23T05:16:37.153Z,89.96
2022-10-23T05:19:08.857Z,89.52
2022-10-23T05:21:38.140Z,90.23
2022-10-23T05:24:06.604Z,89.90
2022-10-23T05:26:34.386Z,89.46
2022-10-23T05:29:02.432Z,89.47
2022-10-23T05:31:30.947Z,89.97
2022-10-23T05:33:58.736Z,89.66
2022-10-23T05:36:28.698Z,89.79
2022-10-23T05:38:56.608Z,89.69
2022-10-23T05:41:24.420Z,89.13
2022-10-23T05:43:52.238Z,88.71
2022-10-23T05:46:20.001Z,89.43
2022-10-23T05:48:51.183Z,89.08
2022-10-23T05:51:23.322Z,89.16
2022-10-23T05:53:53.641Z,88.85
2022-10-23T05:56:21.503Z,89.14
2022-10-23T05:58:49.810Z,89.60
2022-10-23T06:01:18.605Z,89.32
2022-10-23T06:03:46.615Z,88.70
2022-10-23T06:06:14.404Z,89.20
2022-10-23T06:08:42.576Z,89.16
2022-10-23T06:11:14.289Z,88.49
2022-10-23T06:13:44.635Z,88.17
2022-10-23T06:16:16.336Z,89.03
2022-10-23T06:18:44.703Z,89.08
2022-10-23T06:21:12.657Z,88.89
2022-10-23T06:23:41.760Z,88.64
2022-10-23T06:26:13.745Z,88.24
2022-10-23T06:28:41.996Z,88.16
2022-10-23T06:31:11.521Z,88.78
2022-10-23T06:33:39.452Z,88.50
2022-10-23T06:36:10.378Z,88.12
2022-10-23T06:38:40.559Z,88.42
2022-10-23T06:41:12.598Z,88.06
2022-10-23T06:43:42.293Z,88.65
2022-10-23T06:46:10.895Z,88.35
2022-10-23T06:48:38.898Z,88.43
2022-10-23T06:51:08.835Z,88.20
2022-10-23T06:53:38.132Z,88.53
2022-10-23T06:56:08.087Z,88.62
2022-10-23T06:58:38.274Z,87.89
2022-10-23T07:01:10.391Z,87.75
2022-10-23T07:03:38.324Z,87.55
2022-10-23T07:06:09.054Z,87.81
2022-10-23T07:08:37.758Z,87.53
2022-10-23T07:11:06.338Z,87.30
2022-10-23T07:13:35.726Z,87.21
2022-10-23T07:16:13.206Z,87.04
2022-10-23T07:18:41.487Z,87.03
2022-10-23T07:21:09.416Z,87.07
2022-10-23T07:23:37.612Z,86.11
2022-10-23T07:26:32.880Z,86.44
2022-10-23T07:29:00.702Z,86.66
2022-10-23T07:31:31.231Z,86.55
2022-10-23T07:34:08.653Z,86.10
2022-10-23T07:36:36.507Z,86.68
2022-10-23T07:39:04.900Z,86.22
2022-10-23T07:41:32.689Z,85.55
2022-10-23T07:44:00.819Z,85.69
2022-10-23T07:46:30.300Z,84.94
2022-10-23T07:48:58.158Z,84.55
2022-10-23T07:51:26.184Z,84.17
2022-10-23T07:53:54.267Z,83.83
2022-10-23T07:56:25.197Z,83.25
2022-10-23T07:58:54.219Z,82.47
2022-10-23T08:01:29.601Z,81.75
2022-10-23T08:03:59.005Z,81.45
2022-10-23T08:06:27.204Z,81.48
2022-10-23T08:08:55.208Z,80.43
2022-10-23T08:11:28.015Z,80.07
2022-10-23T08:13:57.629Z,79.57
2022-10-23T08:16:26.945Z,78.37
2022-10-23T08:18:55.566Z,78.16
2022-10-23T08:21:25.073Z,77.67
2022-10-23T08:23:56.008Z,76.81
2022-10-23T08:26:25.003Z,76.23
2022-10-23T08:28:53.273Z,75.77
2022-10-23T08:31:23.285Z,74.78
2022-10-23T08:33:51.622Z,74.53
2022-10-23T08:36:22.846Z,74.28
2022-10-23T08:38:53.715Z,73.60
2022-10-23T08:41:28.811Z,73.12
2022-10-23T08:44:08.702Z,72.73
2022-10-23T08:46:41.864Z,72.25
2022-10-23T08:49:26.098Z,71.51
2022-10-23T08:51:58.613Z,71.06
2022-10-23T08:54:35.638Z,70.89
2022-10-23T08:57:10.730Z,70.60
2022-10-23T08:59:46.484Z,70.50
2022-10-23T09:02:22.735Z,69.91
2022-10-23T09:04:53.104Z,70.46
2022-10-23T09:07:29.665Z,70.23
2022-10-23T09:10:11.780Z,70.00
2022-10-23T09:12:39.990Z,69.52
2022-10-23T09:15:31.700Z,68.66
2022-10-23T09:18:08.069Z,68.83
2022-10-23T09:20:37.533Z,68.72
2022-10-23T09:23:09.377Z,68.65
2022-10-23T09:25:41.385Z,67.57
2022-10-23T09:28:19.950Z,66.76
2022-10-23T09:30:51.752Z,65.38
2022-10-23T09:33:22.326Z,65.14
2022-10-23T09:36:00.337Z,64.54
2022-10-23T09:38:31.907Z,63.91
2022-10-23T09:41:11.412Z,63.06
2022-10-23T09:43:39.266Z,62.93
2022-10-23T09:46:09.758Z,62.12
2022-10-23T09:48:42.470Z,61.03
2022-10-23T09:51:19.566Z,60.79
2022-10-23T09:53:53.899Z,61.22
2022-10-23T09:56:32.412Z,60.90
2022-10-23T09:59:02.792Z,61.37
2022-10-23T10:01:33.764Z,60.98
2022-10-23T10:04:01.724Z,60.40
2022-10-23T10:06:33.425Z,60.41
2022-10-23T10:09:03.640Z,60.43
2022-10-23T10:11:39.271Z,59.59
2022-10-23T10:14:32.304Z,59.58
2022-10-23T10:17:04.620Z,58.88
2022-10-23T10:19:48.457Z,57.95
2022-10-23T10:22:31.503Z,58.25
2022-10-23T10:25:08.345Z,57.84
2022-10-23T10:27:46.933Z,57.15
2022-10-23T10:30:17.532Z,57.69
2022-10-23T10:32:51.382Z,58.00
2022-10-23T10:35:34.046Z,57.75
2022-10-23T10:38:32.243Z,56.80
2022-10-23T10:41:24.168Z,56.65
2022-10-23T10:44:10.485Z,57.22
2022-10-23T10:46:45.186Z,57.63
2022-10-23T10:49:21.398Z,57.26
2022-10-23T10:51:57.630Z,57.05
2022-10-23T10:54:40.435Z,57.16
2022-10-23T10:57:15.352Z,57.18
2022-10-23T10:59:48.891Z,57.02
2022-10-23T11:02:29.113Z,57.36
2022-10-23T11:05:06.030Z,57.50
2022-10-23T11:07:38.493Z,57.83
2022-10-23T11:10:17.403Z,58.32
2022-10-23T11:12:47.375Z,58.72
2022-10-23T11:15:22.964Z,58.99
2022-10-23T11:17:56.059Z,59.32
2022-10-23T11:20:46.601Z,59.60
2022-10-23T11:23:38.498Z,59.66
2022-10-23T11:26:21.523Z,58.62
2022-10-23T11:29:02.294Z,58.91
2022-10-23T11:31:40.308Z,59.68
2022-10-23T11:34:44.271Z,59.31
2022-10-23T11:37:19.077Z,59.63
2022-10-23T11:40:02.811Z,59.46
2022-10-23T11:42:46.847Z,59.58
2022-10-23T11:45:37.874Z,59.09
2022-10-23T11:48:20.727Z,59.37
2022-10-23T11:50:54.978Z,59.71
2022-10-23T11:53:40.969Z,60.15
2022-10-23T11:56:28.186Z,60.82
2022-10-23T11:58:58.689Z,60.90
2022-10-23T12:01:32.313Z,61.20
2022-10-23T12:04:05.062Z,61.62
2022-10-23T12:06:39.944Z,61.78
2022-10-23T12:09:20.113Z,61.43
2022-10-23T12:11:51.455Z,61.60
2022-10-23T12:14:30.816Z,61.91
2022-10-23T12:16:58.903Z,62.67
2022-10-23T12:19:47.923Z,62.59
2022-10-23T12:22:16.410Z,62.35
2022-10-23T12:24:57.024Z,61.55
2022-10-23T12:27:34.255Z,61.89
2022-10-23T12:30:16.613Z,62.23
2022-10-23T12:33:05.768Z,62.03
2022-10-23T12:35:50.300Z,61.80
2022-10-23T12:38:20.592Z,60.64
2022-10-23T12:40:52.935Z,61.08
2022-10-23T12:43:27.874Z,60.62
2022-10-23T12:45:57.411Z,60.95
2022-10-23T12:48:26.069Z,61.58
2022-10-23T12:50:56.725Z,61.69
2022-10-23T12:53:24.932Z,61.58
2022-10-23T12:55:57.457Z,61.33
2022-10-23T12:58:30.173Z,61.22
2022-10-23T13:01:00.232Z,60.08
2022-10-23T13:03:30.674Z,60.33
2022-10-23T13:06:02.760Z,59.00
2022-10-23T13:08:35.246Z,58.43
2022-10-23T13:11:04.255Z,58.05
2022-10-23T13:13:32.290Z,57.47
2022-10-23T13:16:00.221Z,57.89
2022-10-23T13:18:28.044Z,56.66
2022-10-23T13:23:32.581Z,56.05
2022-10-23T13:26:01.774Z,55.53
2022-10-23T13:28:33.441Z,55.21
2022-10-23T13:31:25.467Z,55.28
2022-10-23T13:34:06.826Z,56.09
2022-10-23T13:36:39.577Z,55.83
2022-10-23T13:39:15.143Z,54.74
2022-10-23T13:41:44.702Z,54.75
2022-10-23T13:44:13.915Z,55.35
2022-10-23T13:46:42.266Z,56.04
2022-10-23T13:49:10.468Z,55.98
2022-10-23T13:51:43.813Z,56.51
2022-10-23T13:54:16.154Z,56.71
2022-10-23T13:56:44.055Z,57.92
2022-10-23T13:59:12.463Z,58.33
2022-10-23T14:01:41.197Z,58.92
2022-10-23T14:04:09.592Z,59.39
2022-10-23T14:06:38.688Z,60.43
2022-10-23T14:09:10.349Z,61.17
2022-10-23T14:11:38.478Z,62.83
2022-10-23T14:14:06.305Z,63.38
2022-10-23T14:16:34.203Z,63.94
2022-10-23T14:19:02.069Z,64.54
2022-10-23T14:21:30.060Z,64.33
2022-10-23T14:23:58.911Z,64.42
2022-10-23T14:26:30.298Z,64.24
2022-10-23T14:29:02.438Z,64.85
2022-10-23T14:31:35.455Z,64.25
2022-10-23T14:34:03.581Z,64.71
2022-10-23T14:36:38.787Z,65.08
2022-10-23T14:39:17.883Z,65.69
2022-10-23T14:41:48.401Z,66.31
2022-10-23T14:44:16.755Z,66.79
2022-10-23T14:46:44.639Z,66.85
2022-10-23T14:49:12.464Z,67.21
2022-10-23T14:51:40.328Z,67.43
2022-10-23T14:54:09.295Z,67.87
2022-10-23T14:56:39.576Z,67.92
2022-10-23T14:59:10.983Z,67.80
2022-10-23T15:01:43.801Z,67.61
2022-10-23T15:04:15.806Z,68.61
2022-10-23T15:06:45.182Z,69.33
2022-10-23T15:09:13.185Z,69.49
2022-10-23T15:11:41.183Z,70.28
2022-10-23T15:14:10.394Z,70.76
2022-10-23T15:16:41.602Z,71.31
2022-10-23T15:19:13.532Z,72.17
2022-10-23T15:21:45.270Z,72.09
2022-10-23T15:24:13.249Z,73.06
2022-10-23T15:26:43.047Z,73.20
2022-10-23T15:29:14.956Z,73.70
2022-10-23T15:31:45.437Z,74.34
2022-10-23T15:34:17.829Z,74.48
2022-10-23T15:36:49.195Z,74.94
2022-10-23T15:39:19.348Z,74.97
2022-10-23T15:41:47.525Z,75.72
2022-10-23T15:44:18.306Z,75.45
2022-10-23T15:46:48.364Z,75.41
2022-10-23T15:49:16.698Z,75.31
2022-10-23T15:51:45.242Z,75.16
2022-10-23T15:54:18.497Z,75.00
2022-10-23T15:56:49.205Z,74.00
2022-10-23T15:59:19.402Z,74.03
2022-10-23T16:01:47.594Z,73.67
2022-10-23T16:04:16.220Z,73.77
2022-10-23T16:06:44.596Z,73.78
2022-10-23T16:09:12.678Z,73.43
2022-10-23T16:11:42.811Z,72.82
2022-10-23T16:14:13.907Z,72.45
2022-10-23T16:16:43.844Z,72.00
2022-10-23T16:19:12.790Z,71.91
2022-10-23T16:21:41.125Z,71.83
2022-10-23T16:24:09.837Z,72.41
2022-10-23T16:26:38.959Z,72.60
2022-10-23T16:29:08.813Z,72.38
2022-10-23T16:31:36.757Z,71.93
2022-10-23T16:34:09.153Z,71.41
2022-10-23T16:36:40.728Z,71.58
2022-10-23T16:39:09.774Z,71.00
2022-10-23T16:41:37.584Z,70.81
2022-10-23T16:44:05.553Z,70.44
2022-10-23T16:46:34.034Z,70.85
2022-10-23T16:49:02.954Z,70.74
2022-10-23T16:51:32.660Z,70.67
2022-10-23T16:54:00.784Z,70.83
2022-10-23T16:56:30.031Z,70.90
2022-10-23T17:01:33.354Z,70.27
2022-10-23T17:04:01.774Z,69.99
2022-10-23T17:06:33.414Z,69.64
2022-10-23T17:09:02.489Z,69.41
2022-10-23T17:11:32.232Z,69.02
2022-10-23T17:14:04.963Z,68.93
2022-10-23T17:16:36.217Z,68.36
2022-10-23T17:19:15.833Z,68.11
2022-10-23T17:21:55.858Z,68.36
2022-10-23T17:24:24.356Z,68.25
2022-10-23T17:26:52.564Z,68.21
2022-10-23T17:29:22.000Z,68.18
2022-10-23T17:31:51.503Z,67.97
2022-10-23T17:34:21.320Z,68.18
2022-10-23T17:36:52.547Z,67.93
2022-10-23T17:39:24.008Z,67.21
2022-10-23T17:41:54.817Z,67.65
2022-10-23T17:44:23.344Z,67.41
2022-10-23T17:46:55.082Z,66.88
2022-10-23T17:49:23.694Z,66.89
2022-10-23T17:51:53.836Z,67.34
2022-10-23T17:54:24.355Z,68.09
2022-10-23T17:56:52.355Z,68.29
2022-10-23T17:59:20.357Z,68.35
2022-10-23T18:01:49.704Z,68.46
2022-10-23T18:04:20.671Z,68.26
2022-10-23T18:06:50.630Z,68.31
2022-10-23T18:09:18.823Z,67.01
2022-10-23T18:11:48.847Z,66.23
2022-10-23T18:14:19.007Z,66.86
2022-10-23T18:16:47.176Z,66.77
2022-10-23T18:19:15.650Z,66.47
2022-10-23T18:21:44.276Z,66.11
2022-10-23T18:24:13.442Z,66.10
2022-10-23T18:26:42.998Z,66.23
2022-10-23T18:29:15.896Z,65.79
2022-10-23T18:31:48.398Z,65.09
2022-10-23T18:34:21.536Z,65.14
2022-10-23T18:36:50.628Z,64.88
2022-10-23T18:39:22.600Z,64.33
2022-10-23T18:41:55.161Z,64.19
2022-10-23T18:44:53.909Z,63.54
2022-10-23T18:47:26.176Z,62.48
2022-10-23T18:49:58.305Z,62.90
2022-10-23T18:52:30.581Z,62.68
2022-10-23T18:55:01.214Z,63.82
2022-10-23T18:57:31.047Z,63.64
2022-10-23T19:00:03.711Z,64.94
2022-10-23T19:02:32.059Z,66.23
2022-10-23T19:05:00.599Z,67.38
2022-10-23T19:07:35.233Z,68.00
2022-10-23T19:10:16.159Z,68.75
2022-10-23T19:12:50.354Z,69.50
2022-10-23T19:15:31.449Z,69.72
2022-10-23T19:18:01.577Z,70.21
2022-10-23T19:20:34.996Z,70.72
2022-10-23T19:23:12.779Z,70.59
2022-10-23T19:25:54.808Z,71.10
2022-10-23T19:28:23.370Z,71.74
2022-10-23T19:30:57.511Z,72.15
2022-10-23T19:33:34.596Z,72.51
2022-10-23T19:36:14.299Z,72.77
2022-10-23T19:38:45.257Z,72.69
2022-10-23T19:41:34.015Z,72.89
2022-10-23T19:44:06.368Z,72.80
2022-10-23T19:46:42.410Z,72.46
2022-10-23T19:49:11.393Z,72.85
2022-10-23T19:51:51.272Z,72.83
2022-10-23T19:54:24.864Z,73.22
2022-10-23T19:56:56.777Z,73.21
2022-10-23T19:59:25.159Z,73.31
2022-10-23T20:01:55.342Z,73.55
2022-10-23T20:04:23.695Z,73.55
2022-10-23T20:06:51.527Z,73.55
2022-10-23T20:09:19.332Z,73.53
2022-10-23T20:11:49.273Z,74.09
2022-10-23T20:14:20.638Z,74.52
2022-10-23T20:16:52.227Z,74.57
2022-10-23T20:19:25.375Z,74.41
2022-10-23T20:21:53.661Z,73.95
2022-10-23T20:24:22.870Z,73.92
2022-10-23T20:26:53.020Z,71.34
2022-10-23T20:29:21.578Z,69.74
2022-10-23T20:31:49.958Z,67.86
2022-10-23T20:34:19.044Z,66.79
2022-10-23T20:36:50.290Z,65.13
2022-10-23T20:39:20.604Z,62.85
2022-10-23T20:41:49.342Z,62.80
2022-10-23T20:44:19.387Z,62.67
2022-10-23T20:46:47.667Z,61.65
2022-10-23T20:49:16.477Z,61.18
2022-10-23T20:51:44.581Z,61.17
2022-10-23T20:54:14.072Z,60.78
2022-10-23T20:56:42.278Z,60.43
2022-10-23T20:59:12.685Z,60.37
2022-10-23T21:01:41.717Z,60.01
2022-10-23T21:04:12.422Z,60.23
2022-10-23T21:06:57.514Z,60.22
2022-10-23T21:09:31.844Z,59.18
2022-10-23T21:11:59.683Z,58.91
2022-10-23T21:14:28.715Z,58.80
2022-10-23T21:16:56.546Z,59.01
2022-10-23T21:19:24.462Z,58.22
2022-10-23T21:21:52.425Z,58.76
2022-10-23T21:24:20.377Z,58.92
2022-10-23T21:26:49.989Z,58.56
2022-10-23T21:29:19.370Z,58.27
2022-10-23T21:31:52.835Z,58.08
2022-10-23T21:34:20.769Z,58.10
2022-10-23T21:37:11.277Z,58.31
2022-10-23T21:39:36.403Z,57.47
2022-10-23T21:42:05.672Z,57.38
2022-10-23T21:44:33.532Z,56.53
2022-10-23T21:47:02.960Z,56.42
2022-10-23T21:49:30.837Z,56.55
2022-10-23T21:51:58.648Z,56.23
2022-10-23T21:54:26.637Z,56.16
2022-10-23T21:56:55.002Z,56.35
2022-10-23T21:59:27.905Z,55.88
2022-10-23T22:01:58.160Z,55.88
2022-10-23T22:04:26.137Z,55.44
2022-10-23T22:06:54.093Z,55.92
2022-10-23T22:09:23.045Z,55.35
2022-10-23T22:11:51.921Z,55.00
2022-10-23T22:14:20.267Z,55.24
2022-10-23T22:16:50.554Z,54.83
2022-10-23T22:19:19.373Z,55.37
2022-10-23T22:21:49.125Z,55.37
2022-10-23T22:24:18.632Z,55.83
2022-10-23T22:26:48.287Z,55.77
2022-10-23T22:29:18.759Z,56.08
2022-10-23T22:31:49.604Z,55.87
2022-10-23T22:37:12.753Z,55.83
2022-10-23T22:39:40.752Z,55.03
2022-10-23T22:42:08.891Z,55.14
2022-10-23T22:44:36.878Z,55.48
2022-10-23T22:47:05.177Z,55.76
2022-10-23T22:49:34.356Z,55.57
2022-10-23T22:52:02.204Z,55.83
2022-10-23T22:54:31.803Z,55.42
2022-10-23T22:56:59.892Z,55.23
2022-10-23T22:59:27.733Z,55.18
2022-10-23T23:01:56.277Z,55.56
2022-10-23T23:04:39.726Z,55.07
2022-10-23T23:07:11.020Z,55.14
2022-10-23T23:09:39.782Z,54.69
2022-10-23T23:12:09.417Z,55.21
2022-10-23T23:14:37.665Z,55.16
2022-10-23T23:17:06.235Z,55.84
2022-10-23T23:19:34.504Z,54.97
2022-10-23T23:22:03.414Z,55.00
2022-10-23T23:24:33.188Z,55.35
2022-10-23T23:27:01.007Z,55.46
2022-10-23T23:29:29.786Z,55.04
2022-10-23T23:31:57.752Z,55.54
2022-10-23T23:34:25.542Z,55.93
2022-10-23T23:36:53.370Z,55.85
2022-10-23T23:39:21.231Z,55.80
2022-10-23T23:41:50.492Z,55.72
2022-10-23T23:44:18.387Z,55.82
2022-10-23T23:46:46.252Z,56.12
2022-10-23T23:49:14.048Z,55.70
2022-10-23T23:51:42.017Z,56.36
2022-10-23T23:54:09.842Z,56.76
2022-10-23T23:56:38.005Z,57.10
2022-10-23T23:59:07.337Z,57.71
